Time;durP1;ratioP1;P1;durP2;ratioP2;P2;SDS_P1;SDS_P2;PMS_P1;PMS_P2;Temp;Humidity;BMP_temperature;BMP_pressure;BME280_temperature;BME280_humidity;BME280_pressure;Samples;Min_cycle;Max_cycle;Signal;HPM_P1;HPM_P2
2023/01/22 00:01:29;;;;;;;20.98;8.68;;;-0.50;99.90;;;;;;5073486;28;20482;-79
2023/01/22 00:03:55;;;;;;;23.98;9.20;;;-0.60;99.90;;;;;;5073868;28;20052;-79
2023/01/22 00:06:22;;;;;;;23.42;8.13;;;-0.60;99.90;;;;;;5072907;28;20040;-79
2023/01/22 00:08:48;;;;;;;21.33;8.13;;;-0.60;99.90;;;;;;5073624;28;20123;-79
2023/01/22 00:11:15;;;;;;;20.17;7.95;;;-0.60;99.90;;;;;;5071856;28;20127;-80
2023/01/22 00:13:41;;;;;;;23.25;9.25;;;-0.20;99.90;;;;;;5072648;28;20124;-79
2023/01/22 00:16:07;;;;;;;20.13;7.78;;;-0.60;99.90;;;;;;5072191;28;20182;-79
2023/01/22 00:18:33;;;;;;;27.90;9.52;;;-0.60;99.90;;;;;;5073528;28;20404;-79
2023/01/22 00:20:59;;;;;;;23.85;8.27;;;-0.60;99.90;;;;;;5073385;28;20047;-80
2023/01/22 00:23:25;;;;;;;21.85;8.82;;;-0.60;99.90;;;;;;5073139;28;20048;-79
2023/01/22 00:26:06;;;;;;;19.52;7.75;;;-0.50;99.90;;;;;;5072888;28;20048;-79
2023/01/22 00:28:31;;;;;;;21.50;7.95;;;-0.70;99.90;;;;;;5072319;28;20464;-78
2023/01/22 00:30:59;;;;;;;24.80;8.90;;;-0.70;99.90;;;;;;5073376;28;20049;-79
2023/01/22 00:33:25;;;;;;;24.35;7.90;;;-0.70;99.90;;;;;;5072394;28;20075;-79
2023/01/22 00:35:51;;;;;;;;;;;-0.70;99.90;;;;;;5073673;28;20136;-80
2023/01/22 00:38:16;;;;;;;23.90;9.50;;;-0.70;99.90;;;;;;5072410;28;20007;-79
2023/01/22 00:40:42;;;;;;;23.98;8.23;;;-0.80;99.90;;;;;;5072867;28;20048;-79
2023/01/22 00:43:08;;;;;;;24.20;8.77;;;-0.30;99.90;;;;;;5071491;28;20482;-79
2023/01/22 00:45:33;;;;;;;25.55;9.55;;;-0.90;99.90;;;;;;5073199;28;20110;-79
2023/01/22 00:47:59;;;;;;;20.23;7.47;;;-0.90;99.90;;;;;;5071539;28;20052;-79
2023/01/22 00:50:25;;;;;;;;;;;-0.90;99.90;;;;;;5071477;28;20109;-79
2023/01/22 00:52:51;;;;;;;20.23;8.88;;;-0.90;99.90;;;;;;5071711;28;19924;-79
2023/01/22 00:55:17;;;;;;;20.15;8.43;;;-0.90;99.90;;;;;;5071022;28;20044;-79
2023/01/22 00:57:42;;;;;;;25.33;9.10;;;-0.90;99.90;;;;;;5072811;28;20045;-79
2023/01/22 01:00:09;;;;;;;27.85;8.98;;;-0.90;99.90;;;;;;5072459;28;20044;-79
2023/01/22 01:03:25;;;;;;;25.13;9.00;;;-0.90;99.90;;;;;;5071535;28;20474;-79
2023/01/22 01:05:23;;;;;;;25.88;9.30;;;-0.90;99.90;;;;;;5071886;28;20049;-79
2023/01/22 01:07:48;;;;;;;27.13;8.10;;;-0.50;99.90;;;;;;5071458;28;20051;-79
2023/01/22 01:10:14;;;;;;;24.23;7.68;;;-1.00;99.90;;;;;;5070636;28;20045;-78
2023/01/22 01:12:40;;;;;;;22.25;7.93;;;-1.00;99.90;;;;;;5072468;28;20047;-79
2023/01/22 01:15:06;;;;;;;21.75;8.57;;;-1.00;99.90;;;;;;5072348;28;20139;-83
2023/01/22 01:17:33;;;;;;;26.95;9.90;;;-1.00;99.90;;;;;;5071138;28;20040;-79
2023/01/22 01:19:59;;;;;;;22.00;8.98;;;-1.00;99.90;;;;;;5072414;28;20040;-79
2023/01/22 01:22:24;;;;;;;27.35;9.40;;;-1.10;99.90;;;;;;5070790;28;20075;-79
2023/01/22 01:24:50;;;;;;;24.73;8.27;;;-1.10;99.90;;;;;;5070365;28;20036;-79
2023/01/22 01:27:16;;;;;;;24.08;9.18;;;-1.20;99.90;;;;;;5070604;28;20048;-79
2023/01/22 01:29:41;;;;;;;22.52;9.25;;;-1.20;99.90;;;;;;5072130;28;20040;-79
2023/01/22 01:32:07;;;;;;;20.60;9.07;;;-1.20;99.90;;;;;;5071909;28;20589;-82
2023/01/22 01:34:34;;;;;;;21.45;8.32;;;-1.30;99.90;;;;;;5071915;28;20044;-79
2023/01/22 01:36:59;;;;;;;24.92;9.57;;;-1.30;99.90;;;;;;5071844;28;20071;-79
2023/01/22 01:39:25;;;;;;;24.70;9.38;;;-1.20;99.90;;;;;;5071426;28;20501;-78
2023/01/22 01:41:51;;;;;;;22.75;9.02;;;-1.20;99.90;;;;;;5071730;28;20125;-79
2023/01/22 01:44:19;;;;;;;21.85;9.50;;;-1.20;99.90;;;;;;5071434;28;20048;-79
2023/01/22 01:47:04;;;;;;;24.73;9.93;;;-1.20;99.90;;;;;;5071579;28;20051;-80
2023/01/22 01:49:59;;;;;;;21.85;8.18;;;-0.80;99.90;;;;;;5071546;28;20699;-79
2023/01/22 01:52:25;;;;;;;29.80;9.70;;;-1.00;99.90;;;;;;5057581;28;20080;-78
2023/01/22 01:54:55;;;;;;;22.48;9.18;;;-0.90;99.90;;;;;;5070091;28;20429;-79
2023/01/22 01:57:26;;;;;;;28.38;9.55;;;-0.30;99.90;;;;;;5053567;28;20143;-79
2023/01/22 01:59:53;;;;;;;23.58;9.43;;;-0.70;99.90;;;;;;5071669;28;20040;-79
2023/01/22 02:02:19;;;;;;;20.63;8.73;;;-0.70;99.90;;;;;;5070018;28;20131;-79
2023/01/22 02:04:46;;;;;;;18.83;7.82;;;-0.60;99.90;;;;;;5071105;28;20044;-78
2023/01/22 02:07:12;;;;;;;19.90;7.40;;;-0.60;99.90;;;;;;5069936;28;20489;-79
2023/01/22 02:09:38;;;;;;;20.13;8.25;;;-0.50;99.90;;;;;;5071063;28;20052;-78
2023/01/22 02:12:04;;;;;;;19.23;7.57;;;-0.50;99.90;;;;;;5071462;28;20083;-78
2023/01/22 02:14:33;;;;;;;18.75;7.28;;;-0.40;99.90;;;;;;5070833;28;20218;-79
2023/01/22 02:17:07;;;;;;;17.92;7.00;;;-0.40;99.90;;;;;;5069985;28;20057;-80
2023/01/22 02:19:32;;;;;;;22.67;8.15;;;-0.30;99.90;;;;;;5070963;28;20102;-79
2023/01/22 02:21:58;;;;;;;21.08;6.63;;;-0.20;99.90;;;;;;5071195;28;20048;-79
2023/01/22 02:24:27;;;;;;;17.77;6.75;;;-0.20;99.90;;;;;;5070662;28;20086;-79
2023/01/22 02:26:53;;;;;;;18.77;7.07;;;0.20;99.90;;;;;;5071002;28;20052;-81
2023/01/22 02:29:19;;;;;;;19.23;7.20;;;-0.10;99.90;;;;;;5069487;28;20040;-79
2023/01/22 02:31:44;;;;;;;17.98;6.55;;;0.00;99.90;;;;;;5071080;28;20045;-78
2023/01/22 02:34:11;;;;;;;17.33;6.22;;;0.00;99.90;;;;;;5071131;28;20547;-79
2023/01/22 02:36:38;;;;;;;;;;;0.20;99.90;;;;;;5070638;28;20144;-79
2023/01/22 02:39:04;;;;;;;14.15;5.05;;;0.10;99.90;;;;;;5069944;28;19920;-79
2023/01/22 02:41:29;;;;;;;;;;;0.10;99.90;;;;;;5069673;28;20478;-78
2023/01/22 02:43:55;;;;;;;11.68;5.65;;;0.20;99.90;;;;;;5070641;28;19974;-79
2023/01/22 02:46:21;;;;;;;13.23;5.63;;;0.20;99.90;;;;;;5070444;28;20048;-78
2023/01/22 02:48:46;;;;;;;13.50;4.95;;;0.20;99.90;;;;;;5070016;28;20102;-78
2023/01/22 02:51:12;;;;;;;14.13;5.70;;;0.20;99.90;;;;;;5070832;28;20045;-78
2023/01/22 02:53:38;;;;;;;14.27;5.80;;;0.20;99.90;;;;;;5070497;28;20072;-79
2023/01/22 02:56:09;;;;;;;16.00;7.10;;;0.20;99.90;;;;;;5070758;28;20166;-79
2023/01/22 02:58:35;;;;;;;12.00;5.20;;;0.20;99.90;;;;;;5070659;28;20048;-79
2023/01/22 03:01:17;;;;;;;;;;;0.20;99.90;;;;;;5070207;28;20044;-79
2023/01/22 03:03:44;;;;;;;13.82;5.50;;;0.30;99.90;;;;;;5070951;28;19971;-78
2023/01/22 03:06:10;;;;;;;11.07;5.15;;;0.30;99.90;;;;;;5070575;28;20501;-80
2023/01/22 03:08:36;;;;;;;12.52;4.85;;;0.30;99.90;;;;;;5069410;28;20128;-79
2023/01/22 03:11:02;;;;;;;12.05;5.13;;;0.30;99.90;;;;;;5070285;28;20048;-79
2023/01/22 03:21:42;;;;;;;11.98;4.80;;;0.90;99.90;;;;;;5074262;28;20094;-79
2023/01/22 03:24:08;;;;;;;10.98;5.10;;;0.60;99.90;;;;;;5073650;28;20048;-79
2023/01/22 03:26:34;;;;;;;;;;;0.40;99.90;;;;;;5074095;28;20052;-79
2023/01/22 03:29:00;;;;;;;11.57;4.45;;;0.40;99.90;;;;;;5074464;28;19921;-79
2023/01/22 03:31:26;;;;;;;18.70;5.18;;;0.40;99.90;;;;;;5073869;28;20452;-79
2023/01/22 03:33:52;;;;;;;9.32;4.05;;;0.40;99.90;;;;;;5074048;28;20098;-80
2023/01/22 03:36:18;;;;;;;11.77;4.70;;;0.60;99.90;;;;;;5073708;28;20053;-82
2023/01/22 03:38:44;;;;;;;10.02;4.63;;;0.40;99.90;;;;;;5074336;28;20052;-79
2023/01/22 03:41:13;;;;;;;12.25;4.90;;;0.40;99.90;;;;;;5073949;28;20395;-79
2023/01/22 03:43:39;;;;;;;13.50;4.38;;;0.50;99.90;;;;;;5072888;28;20055;-79
2023/01/22 03:46:16;;;;;;;14.13;4.63;;;0.50;99.90;;;;;;5073179;28;20045;-79
2023/01/22 03:48:43;;;;;;;10.98;4.32;;;0.50;99.90;;;;;;5073792;28;20049;-79
2023/01/22 03:51:15;;;;;;;9.77;4.57;;;0.40;99.90;;;;;;5073808;28;20060;-80
2023/01/22 03:53:42;;;;;;;13.23;4.63;;;0.50;99.90;;;;;;5072516;28;20386;-80
2023/01/22 03:56:11;;;;;;;9.73;4.57;;;0.50;99.90;;;;;;5072683;28;20051;-80
2023/01/22 03:58:37;;;;;;;8.10;4.38;;;0.50;99.90;;;;;;5072995;28;20555;-81
2023/01/22 04:01:06;;;;;;;8.50;4.22;;;0.50;99.90;;;;;;5073906;28;20044;-79
2023/01/22 04:03:32;;;;;;;10.27;3.90;;;0.50;99.90;;;;;;5071895;28;20074;-79
2023/01/22 04:05:59;;;;;;;9.45;4.78;;;0.50;99.90;;;;;;5073655;28;20048;-79
2023/01/22 04:08:26;;;;;;;10.07;4.43;;;0.50;99.90;;;;;;5072287;28;20088;-79
2023/01/22 04:10:52;;;;;;;8.80;4.13;;;1.00;99.90;;;;;;5072395;28;20098;-80
2023/01/22 04:13:17;;;;;;;10.13;4.28;;;0.50;99.90;;;;;;5073691;28;20048;-79
2023/01/22 04:15:44;;;;;;;10.13;4.85;;;0.60;99.90;;;;;;5072186;28;20119;-79
2023/01/22 04:18:10;;;;;;;10.93;4.20;;;0.50;99.90;;;;;;5072470;28;20092;-79
2023/01/22 04:20:35;;;;;;;;;;;1.00;99.90;;;;;;5072435;28;20052;-80
2023/01/22 04:23:01;;;;;;;10.43;4.97;;;0.50;99.90;;;;;;5072363;28;19931;-79
2023/01/22 04:25:27;;;;;;;11.43;4.78;;;0.60;99.90;;;;;;5072586;28;20135;-79
2023/01/22 04:27:52;;;;;;;10.32;4.55;;;0.60;99.90;;;;;;5071702;28;20045;-80
2023/01/22 04:30:18;;;;;;;9.23;4.70;;;0.60;99.90;;;;;;5072240;28;20078;-79
2023/01/22 04:32:44;;;;;;;10.85;5.13;;;0.50;99.90;;;;;;5072931;28;20501;-79
2023/01/22 04:35:10;;;;;;;9.02;4.50;;;0.50;99.90;;;;;;5071171;28;20088;-80
2023/01/22 04:37:35;;;;;;;17.65;4.85;;;0.60;99.90;;;;;;5071709;28;20526;-79
2023/01/22 04:40:02;;;;;;;8.23;4.93;;;0.50;99.90;;;;;;5072864;28;20504;-79
2023/01/22 04:42:28;;;;;;;10.38;5.05;;;0.50;99.90;;;;;;5072773;28;20053;-79
2023/01/22 04:44:54;;;;;;;11.75;6.18;;;0.50;99.90;;;;;;5072979;28;20067;-79
2023/01/22 04:47:19;;;;;;;10.75;5.25;;;0.50;99.90;;;;;;5072988;28;20194;-79
2023/01/22 04:49:45;;;;;;;8.63;4.38;;;0.50;99.90;;;;;;5072290;28;20098;-79
2023/01/22 04:52:10;;;;;;;12.05;5.00;;;0.60;99.90;;;;;;5072769;28;20052;-79
2023/01/22 04:54:36;;;;;;;11.52;4.35;;;0.60;99.90;;;;;;5071983;28;20123;-79
2023/01/22 04:57:02;;;;;;;11.75;5.10;;;1.10;99.90;;;;;;5072865;28;20045;-80
2023/01/22 04:59:27;;;;;;;10.48;5.63;;;0.60;99.90;;;;;;5072526;28;20500;-79
2023/01/22 05:01:53;;;;;;;9.27;5.53;;;0.60;99.90;;;;;;5072313;28;20044;-79
2023/01/22 05:04:20;;;;;;;9.40;4.88;;;0.90;99.90;;;;;;5072654;28;20087;-79
2023/01/22 05:06:46;;;;;;;8.60;4.82;;;0.60;99.90;;;;;;5072071;28;20053;-81
2023/01/22 05:09:12;;;;;;;7.47;5.07;;;0.60;99.90;;;;;;5071412;28;20048;-80
2023/01/22 05:11:38;;;;;;;8.77;4.40;;;0.60;99.90;;;;;;5070818;28;20406;-79
2023/01/22 05:14:04;;;;;;;11.35;4.78;;;0.80;99.90;;;;;;5071682;28;20045;-80
2023/01/22 05:16:29;;;;;;;8.60;4.63;;;0.50;99.90;;;;;;5070770;28;20049;-79
2023/01/22 05:18:55;;;;;;;8.07;4.22;;;0.50;99.90;;;;;;5071535;28;20064;-79
2023/01/22 05:21:22;;;;;;;6.30;3.92;;;0.60;99.90;;;;;;5072094;28;20049;-80
2023/01/22 05:23:48;;;;;;;6.60;4.18;;;0.50;99.90;;;;;;5070406;28;20122;-79
2023/01/22 05:26:13;;;;;;;8.48;4.60;;;0.40;99.90;;;;;;5070910;28;20127;-80
2023/01/22 05:28:39;;;;;;;7.78;4.13;;;0.40;99.90;;;;;;5071550;28;20105;-79
2023/01/22 05:31:05;;;;;;;10.32;4.90;;;0.40;99.90;;;;;;5072223;28;20044;-80
2023/01/22 05:33:31;;;;;;;8.88;4.13;;;0.40;99.90;;;;;;5070659;28;20047;-79
2023/01/22 05:36:01;;;;;;;8.40;4.28;;;0.40;99.90;;;;;;5071618;28;20139;-80
2023/01/22 05:38:28;;;;;;;10.20;5.32;;;0.40;99.90;;;;;;5069680;28;20122;-80
2023/01/22 05:40:54;;;;;;;8.63;4.30;;;0.40;99.90;;;;;;5071599;28;20139;-79
2023/01/22 05:43:20;;;;;;;9.48;4.63;;;0.60;99.90;;;;;;5071949;28;20127;-80
2023/01/22 05:45:45;;;;;;;12.05;4.72;;;0.40;99.90;;;;;;5071670;28;20051;-80
2023/01/22 05:48:11;;;;;;;7.63;4.43;;;0.50;99.90;;;;;;5070708;28;20045;-79
2023/01/22 05:50:39;;;;;;;8.05;4.60;;;1.30;99.90;;;;;;5071352;28;20049;-79
2023/01/22 05:53:05;;;;;;;8.30;4.30;;;0.50;99.90;;;;;;5071394;28;20047;-79
2023/01/22 05:55:33;;;;;;;9.98;5.10;;;0.60;99.90;;;;;;5069989;28;20143;-79
2023/01/22 05:57:58;;;;;;;9.45;4.78;;;0.90;99.90;;;;;;5070486;28;20040;-80
2023/01/22 06:00:25;;;;;;;11.38;5.05;;;0.50;99.90;;;;;;5037286;28;20043;-79
2023/01/22 06:02:57;;;;;;;12.80;5.40;;;0.50;99.90;;;;;;5071267;28;20044;-79
2023/01/22 06:05:23;;;;;;;9.02;5.07;;;0.60;99.90;;;;;;5071516;28;20040;-80
2023/01/22 06:07:49;;;;;;;9.20;4.82;;;0.60;99.90;;;;;;5070843;28;20044;-79
2023/01/22 06:10:15;;;;;;;10.65;5.03;;;0.60;99.90;;;;;;5069780;28;20056;-78
2023/01/22 06:12:41;;;;;;;8.02;4.55;;;0.60;99.90;;;;;;5071005;28;20052;-80
2023/01/22 06:15:08;;;;;;;8.75;4.35;;;0.70;99.90;;;;;;5071375;28;20139;-79
2023/01/22 06:17:33;;;;;;;13.90;4.95;;;0.60;99.90;;;;;;5069447;28;20046;-79
2023/01/22 06:19:59;;;;;;;9.52;4.70;;;0.70;99.90;;;;;;5071399;28;20036;-80
2023/01/22 06:22:25;;;;;;;8.18;4.45;;;0.70;99.90;;;;;;5070147;28;20070;-79
2023/01/22 06:24:50;;;;;;;7.30;4.38;;;0.70;99.90;;;;;;5070609;28;20049;-79
2023/01/22 06:27:16;;;;;;;11.48;5.22;;;0.70;99.90;;;;;;5071284;28;20198;-78
2023/01/22 06:29:42;;;;;;;11.65;5.47;;;0.70;99.90;;;;;;5070887;28;20052;-79
2023/01/22 06:32:07;;;;;;;7.80;4.57;;;0.70;99.90;;;;;;5071068;28;20078;-79
2023/01/22 06:34:33;;;;;;;7.55;4.28;;;0.70;99.90;;;;;;5070588;28;20079;-79
2023/01/22 06:36:59;;;;;;;7.63;4.55;;;0.70;99.90;;;;;;5070971;28;20486;-79
2023/01/22 06:39:24;;;;;;;9.02;4.28;;;0.70;99.90;;;;;;5070959;28;20048;-79
2023/01/22 06:41:50;;;;;;;13.13;4.63;;;0.70;99.90;;;;;;5070160;28;20117;-79
2023/01/22 06:44:17;;;;;;;10.55;4.93;;;1.10;99.90;;;;;;5071230;28;20478;-79
2023/01/22 06:46:45;;;;;;;10.27;4.50;;;0.70;99.90;;;;;;5070515;28;20052;-81
2023/01/22 06:49:11;;;;;;;8.75;4.13;;;0.70;99.90;;;;;;5070890;28;20114;-79
2023/01/22 06:51:36;;;;;;;10.23;4.50;;;0.80;99.90;;;;;;5069209;28;20473;-79
2023/01/22 06:54:02;;;;;;;8.02;4.28;;;0.70;99.90;;;;;;5070116;28;20052;-79
2023/01/22 06:56:28;;;;;;;9.75;4.10;;;0.60;99.90;;;;;;5069499;28;20040;-80
2023/01/22 06:58:53;;;;;;;10.15;4.25;;;0.60;99.90;;;;;;5069613;28;20478;-80
2023/01/22 07:01:19;;;;;;;9.43;4.43;;;0.50;99.90;;;;;;5070703;28;20055;-80
2023/01/22 07:03:45;;;;;;;9.95;4.20;;;0.50;99.90;;;;;;5070819;28;20513;-79
2023/01/22 07:06:11;;;;;;;9.60;4.78;;;0.50;99.90;;;;;;5069588;28;20199;-78
2023/01/22 07:08:37;;;;;;;8.40;4.68;;;0.50;99.90;;;;;;5070409;28;20441;-79
2023/01/22 07:11:04;;;;;;;8.23;4.35;;;0.50;99.90;;;;;;5069511;28;20044;-80
2023/01/22 07:13:29;;;;;;;8.68;4.28;;;0.40;99.90;;;;;;5070803;28;20117;-80
2023/01/22 07:15:55;;;;;;;11.07;4.80;;;0.40;99.90;;;;;;5070724;28;20492;-79
2023/01/22 07:18:22;;;;;;;9.15;4.78;;;0.40;99.90;;;;;;5069665;28;20088;-80
2023/01/22 07:20:48;;;;;;;12.93;4.60;;;0.50;99.90;;;;;;5070053;28;20102;-79
2023/01/22 07:23:14;;;;;;;;;;;0.80;99.90;;;;;;5070976;28;20052;-79
2023/01/22 07:25:40;;;;;;;9.10;4.78;;;0.50;99.90;;;;;;5069821;28;20014;-79
2023/01/22 07:28:06;;;;;;;12.02;5.10;;;0.50;99.90;;;;;;5070934;28;20462;-80
2023/01/22 07:30:32;;;;;;;9.18;4.60;;;0.50;99.90;;;;;;5070453;28;20040;-82
2023/01/22 07:33:02;;;;;;;9.95;4.55;;;0.60;99.90;;;;;;5070284;28;20044;-79
2023/01/22 07:35:29;;;;;;;11.52;5.22;;;0.60;99.90;;;;;;5070441;28;20052;-79
2023/01/22 07:37:56;;;;;;;10.13;4.70;;;0.60;99.90;;;;;;5068914;28;20136;-79
2023/01/22 07:40:23;;;;;;;9.05;4.35;;;0.70;99.90;;;;;;5068950;28;20303;-79
2023/01/22 07:42:50;;;;;;;10.73;4.95;;;0.60;99.90;;;;;;5070119;28;20055;-79
2023/01/22 07:45:18;;;;;;;8.93;5.00;;;0.70;99.90;;;;;;5069321;28;20066;-80
2023/01/22 07:47:54;;;;;;;8.52;4.45;;;0.70;99.90;;;;;;5068966;28;20083;-79
2023/01/22 07:50:22;;;;;;;12.18;5.10;;;0.70;99.90;;;;;;5070432;28;20078;-79
2023/01/22 07:52:47;;;;;;;8.63;4.75;;;0.60;99.90;;;;;;5069910;28;20052;-79
2023/01/22 07:55:13;;;;;;;9.35;4.65;;;0.70;99.90;;;;;;5070087;28;20047;-79
2023/01/22 07:57:39;;;;;;;7.97;4.32;;;0.70;99.90;;;;;;5069909;28;20047;-78
2023/01/22 08:00:06;;;;;;;10.10;4.72;;;0.70;99.90;;;;;;5070424;28;20052;-80
2023/01/22 08:02:31;;;;;;;7.75;4.35;;;0.80;99.90;;;;;;5072137;28;20052;-79
2023/01/22 08:04:57;;;;;;;9.15;4.97;;;0.70;99.90;;;;;;5073504;28;20143;-80
2023/01/22 08:07:23;;;;;;;8.73;4.70;;;1.50;99.90;;;;;;5072523;28;20040;-86
2023/01/22 08:09:49;;;;;;;8.73;4.03;;;1.30;99.90;;;;;;5071775;28;20090;-78
2023/01/22 08:12:14;;;;;;;8.73;5.05;;;0.90;99.90;;;;;;5073849;28;20052;-86
2023/01/22 08:14:40;;;;;;;9.93;4.57;;;1.00;99.90;;;;;;5073488;28;20052;-85
2023/01/22 08:17:06;;;;;;;8.00;4.53;;;1.10;99.90;;;;;;5073483;28;20041;-86
2023/01/22 08:19:31;;;;;;;8.90;4.50;;;1.10;99.90;;;;;;5072561;28;20139;-80
2023/01/22 08:21:57;;;;;;;9.65;4.72;;;1.10;99.90;;;;;;5072031;28;20047;-79
2023/01/22 08:24:22;;;;;;;9.95;4.57;;;1.10;99.90;;;;;;5073295;28;20098;-79
2023/01/22 08:26:48;;;;;;;10.63;4.35;;;1.00;99.90;;;;;;5072630;28;20105;-78
2023/01/22 08:29:14;;;;;;;9.02;4.85;;;1.00;99.90;;;;;;5073323;28;20489;-78
2023/01/22 08:31:40;;;;;;;10.52;4.85;;;1.00;99.90;;;;;;5072829;28;20099;-81
2023/01/22 08:34:05;;;;;;;8.32;4.40;;;1.30;99.90;;;;;;5072448;28;20084;-78
2023/01/22 08:36:31;;;;;;;10.38;4.95;;;1.40;99.90;;;;;;5072827;28;20075;-80
2023/01/22 08:38:57;;;;;;;7.78;4.53;;;1.00;99.90;;;;;;5055185;28;20473;-78
2023/01/22 08:41:23;;;;;;;9.93;4.18;;;1.00;99.90;;;;;;5071862;28;20051;-78
2023/01/22 08:43:51;;;;;;;9.05;4.55;;;1.00;99.90;;;;;;5071708;28;20049;-78
2023/01/22 08:46:17;;;;;;;9.90;4.75;;;1.00;99.90;;;;;;5072711;28;20058;-80
2023/01/22 08:48:43;;;;;;;10.93;5.28;;;1.10;99.90;;;;;;5072757;28;20473;-79
2023/01/22 08:51:10;;;;;;;9.00;4.95;;;1.00;99.90;;;;;;5072856;28;20055;-78
2023/01/22 08:53:35;;;;;;;9.68;5.15;;;1.10;99.90;;;;;;5071977;28;20469;-79
2023/01/22 08:56:01;;;;;;;10.30;4.80;;;1.10;99.90;;;;;;5071221;28;20045;-79
2023/01/22 08:58:27;;;;;;;10.75;4.78;;;1.10;99.90;;;;;;5072841;28;20131;-78
2023/01/22 09:00:56;;;;;;;8.00;4.90;;;1.20;99.90;;;;;;5072211;28;20045;-78
2023/01/22 09:03:22;;;;;;;10.85;5.32;;;1.20;99.90;;;;;;5071578;28;20048;-79
2023/01/22 09:05:49;;;;;;;9.95;5.40;;;1.20;99.90;;;;;;5072143;28;20041;-78
2023/01/22 09:08:15;;;;;;;9.68;4.70;;;1.20;99.90;;;;;;5072501;28;20048;-79
2023/01/22 09:10:42;;;;;;;11.68;5.20;;;1.10;99.90;;;;;;5071870;28;20177;-81
2023/01/22 09:13:08;;;;;;;9.88;5.20;;;1.10;99.90;;;;;;5071349;28;20109;-78
2023/01/22 09:15:34;;;;;;;8.43;4.88;;;1.10;99.90;;;;;;5072597;28;20131;-78
2023/01/22 09:17:59;;;;;;;9.35;5.00;;;1.20;99.90;;;;;;5071722;28;20127;-78
2023/01/22 09:20:25;;;;;;;11.02;5.22;;;1.20;99.90;;;;;;5072512;28;20050;-77
2023/01/22 09:22:51;;;;;;;12.80;5.35;;;1.20;99.90;;;;;;5071840;28;20171;-79
2023/01/22 09:25:16;;;;;;;9.70;5.03;;;1.50;99.90;;;;;;5071991;28;20053;-79
2023/01/22 09:27:42;;;;;;;8.60;4.57;;;1.30;99.90;;;;;;5071923;28;20048;-83
2023/01/22 09:30:09;;;;;;;10.05;4.90;;;1.00;99.90;;;;;;5072170;28;20470;-79
2023/01/22 09:32:35;;;;;;;10.00;4.90;;;1.40;99.90;;;;;;5071737;28;20083;-80
2023/01/22 09:35:01;;;;;;;;;;;1.40;99.90;;;;;;5071753;28;20093;-80
2023/01/22 09:37:27;;;;;;;10.68;5.05;;;1.50;99.90;;;;;;5071030;28;19928;-79
2023/01/22 09:39:52;;;;;;;8.75;4.72;;;1.50;99.90;;;;;;5069406;28;20063;-78
2023/01/22 09:42:32;;;;;;;10.32;5.00;;;1.50;99.90;;;;;;5071618;28;20041;-79
2023/01/22 09:45:04;;;;;;;8.98;4.90;;;1.60;99.90;;;;;;5071136;28;20486;-79
2023/01/22 09:47:41;;;;;;;10.60;5.43;;;1.60;99.90;;;;;;5072122;28;20041;-79
2023/01/22 09:50:29;;;;;;;10.43;4.88;;;1.70;99.90;;;;;;5071999;28;20048;-79
2023/01/22 09:53:00;;;;;;;9.73;4.75;;;1.70;99.90;;;;;;5071704;28;20051;-80
2023/01/22 09:55:29;;;;;;;10.40;4.95;;;2.10;99.90;;;;;;5053907;28;20048;-81
2023/01/22 09:57:59;;;;;;;11.60;5.07;;;1.70;99.90;;;;;;5071455;28;20040;-79
2023/01/22 10:00:34;;;;;;;9.85;4.90;;;1.80;99.90;;;;;;5072285;28;20040;-79
2023/01/22 10:03:03;;;;;;;8.65;4.45;;;1.80;99.90;;;;;;5071341;28;20045;-79
2023/01/22 10:05:39;;;;;;;8.93;4.45;;;1.80;99.90;;;;;;5070969;28;20140;-78
2023/01/22 10:08:13;;;;;;;9.38;4.60;;;1.90;99.90;;;;;;5071538;28;20629;-81
2023/01/22 10:10:39;;;;;;;13.57;5.13;;;1.80;99.90;;;;;;5070459;28;20044;-78
2023/01/22 10:13:22;;;;;;;7.78;4.00;;;1.90;99.90;;;;;;5070464;28;20594;-79
2023/01/22 10:15:50;;;;;;;8.77;4.47;;;1.90;99.90;;;;;;5070367;28;20548;-81
2023/01/22 10:18:25;;;;;;;13.77;4.30;;;1.90;99.90;;;;;;5071782;28;20048;-79
2023/01/22 10:20:53;;;;;;;10.20;4.47;;;1.90;99.90;;;;;;5071413;28;20094;-78
2023/01/22 10:23:22;;;;;;;9.27;4.55;;;1.90;99.90;;;;;;5071603;28;20040;-80
2023/01/22 10:25:50;;;;;;;10.52;5.30;;;2.00;99.90;;;;;;5070812;28;20052;-82
2023/01/22 10:28:23;;;;;;;9.32;4.43;;;1.90;99.90;;;;;;5071674;28;20119;-79
2023/01/22 10:30:50;;;;;;;11.30;5.10;;;2.00;99.90;;;;;;5070359;28;20048;-81
2023/01/22 10:33:21;;;;;;;10.45;4.90;;;1.80;99.90;;;;;;5071007;28;20127;-79
2023/01/22 10:35:51;;;;;;;10.10;4.80;;;1.90;99.90;;;;;;5069641;28;20514;-80
2023/01/22 10:38:31;;;;;;;10.88;4.78;;;1.90;99.90;;;;;;5070540;28;20496;-80
2023/01/22 10:41:02;;;;;;;10.00;4.97;;;1.90;99.90;;;;;;5069993;28;20465;-79
2023/01/22 10:43:36;;;;;;;10.98;4.50;;;1.90;99.90;;;;;;5070153;28;20052;-80
2023/01/22 10:46:22;;;;;;;9.32;4.57;;;1.90;99.90;;;;;;5070132;28;20056;-79
2023/01/22 10:49:04;;;;;;;9.32;5.18;;;1.90;99.90;;;;;;5069623;28;20156;-80
2023/01/22 10:51:38;;;;;;;10.15;4.95;;;2.00;99.90;;;;;;5069900;28;20517;-80
2023/01/22 10:54:34;;;;;;;8.95;4.57;;;2.00;99.90;;;;;;5069150;28;20056;-79
2023/01/22 10:57:26;;;;;;;13.93;4.78;;;2.10;99.90;;;;;;5068446;28;20114;-80
2023/01/22 11:00:13;;;;;;;10.13;4.70;;;2.10;99.90;;;;;;5069919;28;20087;-77
2023/01/22 11:02:44;;;;;;;11.35;4.97;;;2.10;99.90;;;;;;5070157;28;20067;-80
2023/01/22 11:05:25;;;;;;;9.35;4.60;;;2.10;99.90;;;;;;5069464;28;20052;-80
2023/01/22 11:08:04;;;;;;;9.27;4.75;;;2.10;99.90;;;;;;5069457;28;20486;-82
2023/01/22 11:10:44;;;;;;;11.40;5.10;;;2.10;99.90;;;;;;5068502;28;20453;-79
2023/01/22 11:13:18;;;;;;;10.15;4.97;;;2.10;99.90;;;;;;5069186;28;20076;-79
2023/01/22 11:15:52;;;;;;;9.77;4.50;;;2.10;99.90;;;;;;5070110;28;20135;-82
2023/01/22 11:18:35;;;;;;;12.20;5.00;;;2.10;99.90;;;;;;5069851;28;20071;-79
2023/01/22 11:21:04;;;;;;;11.65;4.85;;;2.10;99.90;;;;;;5068787;28;20120;-80
2023/01/22 11:23:48;;;;;;;10.07;5.38;;;2.10;99.90;;;;;;5068493;28;20055;-81
2023/01/22 11:26:30;;;;;;;11.07;4.65;;;2.10;99.90;;;;;;5069231;28;20060;-79
2023/01/22 11:29:06;;;;;;;10.68;4.38;;;2.10;99.90;;;;;;5069447;28;20051;-79
2023/01/22 11:31:55;;;;;;;12.13;5.97;;;2.10;99.90;;;;;;5069792;28;20432;-79
2023/01/22 11:34:56;;;;;;;16.40;4.25;;;2.20;99.90;;;;;;5068604;28;20535;-79
2023/01/22 11:37:53;;;;;;;11.05;5.05;;;2.30;99.90;;;;;;5070533;28;20084;-79
2023/01/22 11:40:30;;;;;;;13.48;5.47;;;2.30;99.90;;;;;;5071850;28;20063;-79
2023/01/22 11:43:09;;;;;;;13.45;5.18;;;2.30;99.90;;;;;;5072403;28;20048;-79
2023/01/22 11:46:12;;;;;;;9.75;4.90;;;2.30;99.90;;;;;;5073397;28;20496;-79
2023/01/22 11:48:57;;;;;;;10.50;5.10;;;2.30;99.90;;;;;;5073464;28;20128;-80
2023/01/22 11:51:47;;;;;;;11.65;5.03;;;2.30;99.90;;;;;;5073288;28;20045;-79
2023/01/22 11:54:47;;;;;;;11.32;5.25;;;2.30;99.90;;;;;;5073252;28;20163;-79
2023/01/22 11:57:25;;;;;;;10.73;5.28;;;2.30;99.90;;;;;;5072770;28;20036;-79
2023/01/22 12:00:28;;;;;;;12.00;5.05;;;2.30;99.90;;;;;;5072371;28;20060;-79
2023/01/22 12:03:12;;;;;;;9.35;4.85;;;2.30;99.90;;;;;;5072101;28;20047;-81
2023/01/22 12:06:05;;;;;;;10.98;5.03;;;2.30;99.90;;;;;;5072715;28;20634;-80
2023/01/22 12:09:10;;;;;;;10.35;5.05;;;2.30;99.90;;;;;;5073306;28;20044;-80
2023/01/22 12:11:57;;;;;;;12.32;5.63;;;2.30;99.90;;;;;;5072105;28;20478;-79
2023/01/22 12:14:30;;;;;;;10.35;4.47;;;2.30;99.90;;;;;;5072187;28;20381;-79
2023/01/22 12:17:24;;;;;;;9.75;5.32;;;2.30;99.90;;;;;;5071970;28;20082;-81
2023/01/22 12:20:28;;;;;;;11.15;5.88;;;2.20;99.90;;;;;;5072724;28;20087;-79
2023/01/22 12:23:01;;;;;;;14.05;5.18;;;2.20;99.90;;;;;;5017493;28;20058;-79
2023/01/22 12:25:45;;;;;;;11.05;4.85;;;2.20;99.90;;;;;;5072753;28;20056;-79
2023/01/22 12:28:42;;;;;;;12.10;4.97;;;2.30;99.90;;;;;;5072131;28;20070;-80
2023/01/22 12:31:28;;;;;;;10.43;4.95;;;2.30;99.90;;;;;;5048222;28;20063;-81
2023/01/22 12:33:59;;;;;;;10.32;4.97;;;2.40;99.90;;;;;;5072815;28;20044;-80
2023/01/22 12:36:27;;;;;;;9.32;4.85;;;2.30;99.90;;;;;;5072566;28;20095;-81
2023/01/22 12:38:59;;;;;;;9.30;4.68;;;2.30;99.90;;;;;;5072765;28;20088;-79
2023/01/22 12:41:47;;;;;;;9.48;4.50;;;2.30;99.90;;;;;;5071229;28;20040;-80
2023/01/22 12:44:36;;;;;;;12.63;5.45;;;2.30;99.90;;;;;;5071376;28;20398;-80
2023/01/22 12:47:19;;;;;;;9.68;4.60;;;2.30;99.90;;;;;;5071608;28;20540;-80
2023/01/22 12:49:48;;;;;;;13.65;5.15;;;2.40;99.90;;;;;;5072525;28;20049;-79
2023/01/22 12:52:38;;;;;;;9.40;4.60;;;2.40;99.90;;;;;;5070703;28;20044;-80
2023/01/22 12:55:36;;;;;;;8.43;4.55;;;2.40;99.90;;;;;;5071293;28;20046;-80
2023/01/22 12:58:03;;;;;;;11.57;4.53;;;2.40;99.90;;;;;;5071693;28;20105;-80
2023/01/22 13:00:35;;;;;;;9.07;4.10;;;2.70;99.90;;;;;;5072032;28;20048;-80
2023/01/22 13:03:22;;;;;;;11.20;4.88;;;2.40;99.90;;;;;;5070833;28;20041;-81
2023/01/22 13:05:47;;;;;;;10.40;4.50;;;2.40;99.90;;;;;;5072335;28;20409;-80
2023/01/22 13:08:16;;;;;;;13.40;5.25;;;2.60;99.90;;;;;;5071688;28;20048;-79
2023/01/22 13:11:02;;;;;;;9.23;4.88;;;2.50;99.90;;;;;;5070497;28;20553;-79
2023/01/22 13:13:40;;;;;;;9.27;4.75;;;2.50;99.90;;;;;;5071853;28;20477;-79